Time;durP1;ratioP1;P1;durP2;ratioP2;P2;SDS_P1;SDS_P2;PMS_P1;PMS_P2;Temp;Humidity;BMP_temperature;BMP_pressure;BME280_temperature;BME280_humidity;BME280_pressure;Samples;Min_cycle;Max_cycle;Signal;HPM_P1;HPM_P2
2022/03/08 00:01:00;;;;;;;12.40;7.40;;;4.60;41.40;;;;;;5020702;28;20649;-42
2022/03/08 00:03:27;;;;;;;13.70;7.40;;;4.50;41.40;;;;;;5021352;28;20060;-43
2022/03/08 00:05:55;;;;;;;10.93;6.95;;;4.50;41.50;;;;;;5018842;28;20140;-43
2022/03/08 00:08:24;;;;;;;11.63;6.95;;;4.50;41.60;;;;;;5013192;28;20485;-42
2022/03/08 00:10:52;;;;;;;12.18;7.07;;;4.50;41.60;;;;;;5017796;28;20516;-42
2022/03/08 00:13:19;;;;;;;9.60;6.38;;;4.50;41.60;;;;;;5022512;28;20498;-42
2022/03/08 00:15:48;;;;;;;12.93;6.80;;;4.40;41.60;;;;;;5020224;28;20053;-43
2022/03/08 00:18:17;;;;;;;14.85;6.97;;;4.40;41.60;;;;;;5021637;28;20444;-42
2022/03/08 00:20:45;;;;;;;10.85;6.95;;;4.40;41.60;;;;;;5022247;28;20056;-42
2022/03/08 00:23:12;;;;;;;11.30;6.22;;;4.40;41.70;;;;;;5021899;28;20050;-43
2022/03/08 00:25:41;;;;;;;9.90;6.50;;;4.40;41.70;;;;;;5018560;28;20064;-42
2022/03/08 00:28:09;;;;;;;10.27;6.15;;;4.40;41.80;;;;;;5020678;28;20516;-42
2022/03/08 00:30:38;;;;;;;14.95;6.53;;;4.40;41.80;;;;;;5021026;28;20053;-43
2022/03/08 00:33:05;;;;;;;13.05;6.88;;;4.40;41.80;;;;;;5018910;28;20054;-42
2022/03/08 00:35:33;;;;;;;10.30;6.60;;;4.40;41.80;;;;;;5018542;28;20052;-42
2022/03/08 00:38:00;;;;;;;10.82;6.05;;;4.40;41.90;;;;;;5021710;28;20391;-42
2022/03/08 00:40:28;;;;;;;12.32;5.82;;;4.40;41.90;;;;;;5022726;28;20433;-42
2022/03/08 00:42:57;;;;;;;10.60;6.28;;;4.40;41.90;;;;;;5019784;28;20061;-42
2022/03/08 00:45:25;;;;;;;11.63;7.00;;;4.30;41.90;;;;;;5018349;28;20751;-45
2022/03/08 00:47:52;;;;;;;10.38;6.20;;;4.30;41.90;;;;;;5021841;28;20512;-42
2022/03/08 00:50:22;;;;;;;10.93;6.97;;;4.30;42.00;;;;;;5020970;28;20129;-42
2022/03/08 00:52:50;;;;;;;10.65;6.00;;;4.30;42.00;;;;;;5019708;28;20494;-43
2022/03/08 00:55:19;;;;;;;14.75;7.05;;;4.30;41.90;;;;;;5019090;28;20061;-42
2022/03/08 00:57:48;;;;;;;9.95;6.03;;;4.30;41.90;;;;;;5021504;28;20060;-43
2022/03/08 01:00:19;;;;;;;9.20;5.75;;;4.30;42.00;;;;;;5020722;28;20057;-42
2022/03/08 01:02:46;;;;;;;10.70;6.68;;;4.30;42.00;;;;;;5021567;28;20415;-47
2022/03/08 01:05:14;;;;;;;10.13;6.10;;;4.30;42.00;;;;;;5017212;28;20477;-42
2022/03/08 01:07:42;;;;;;;7.97;5.32;;;4.30;42.00;;;;;;5021930;28;20076;-48
2022/03/08 01:10:13;;;;;;;10.10;5.50;;;4.30;42.10;;;;;;5022833;28;20061;-42
2022/03/08 01:12:41;;;;;;;11.27;6.20;;;4.20;42.10;;;;;;5024419;28;20548;-42
2022/03/08 01:15:10;;;;;;;10.40;5.95;;;4.20;42.10;;;;;;5017863;28;21531;-42
2022/03/08 01:17:39;;;;;;;10.38;5.68;;;4.20;42.10;;;;;;5025568;28;20061;-42
2022/03/08 01:20:09;;;;;;;10.20;6.30;;;4.20;42.10;;;;;;5023545;28;20076;-42
2022/03/08 01:22:37;;;;;;;15.70;6.53;;;4.20;42.30;;;;;;5023904;28;20049;-42
2022/03/08 01:25:06;;;;;;;10.70;6.05;;;4.20;42.30;;;;;;5023845;28;20943;-42
2022/03/08 01:27:33;;;;;;;10.35;6.10;;;4.20;42.30;;;;;;5024573;28;20049;-42
2022/03/08 01:30:01;;;;;;;11.75;6.07;;;4.20;42.30;;;;;;5025514;28;20057;-43
2022/03/08 01:32:29;;;;;;;10.25;5.93;;;4.20;42.40;;;;;;5022340;28;20612;-42
2022/03/08 01:34:58;;;;;;;9.10;5.55;;;4.20;42.50;;;;;;5021703;28;20513;-42
2022/03/08 01:37:25;;;;;;;9.57;5.30;;;4.20;42.50;;;;;;5024472;28;20057;-42
2022/03/08 01:39:53;;;;;;;9.48;5.65;;;4.10;42.50;;;;;;5025323;28;20064;-42
2022/03/08 01:42:24;;;;;;;9.90;5.97;;;4.10;42.50;;;;;;5024503;28;20065;-42
2022/03/08 01:44:52;;;;;;;14.60;5.78;;;4.10;42.60;;;;;;5022770;28;20054;-42
2022/03/08 01:47:21;;;;;;;9.13;5.45;;;4.20;42.60;;;;;;5023249;28;20054;-42
2022/03/08 01:49:50;;;;;;;12.30;6.13;;;4.20;42.60;;;;;;5022329;28;20084;-42
2022/03/08 01:52:22;;;;;;;9.63;5.45;;;4.20;43.20;;;;;;5024372;28;20060;-42
2022/03/08 01:54:50;;;;;;;6.03;4.15;;;4.10;42.70;;;;;;5021488;28;20074;-42
2022/03/08 01:57:19;;;;;;;7.35;5.22;;;4.10;42.70;;;;;;5025014;28;20060;-42
2022/03/08 01:59:47;;;;;;;8.70;5.13;;;4.20;42.80;;;;;;5024318;28;20412;-42
2022/03/08 02:02:15;;;;;;;8.82;5.07;;;4.10;42.70;;;;;;5020183;28;20496;-43
2022/03/08 02:04:42;;;;;;;10.27;5.53;;;4.20;42.80;;;;;;5021114;28;20060;-43
2022/03/08 02:07:10;;;;;;;10.20;5.18;;;4.20;42.80;;;;;;5025217;28;20068;-43
2022/03/08 02:09:39;;;;;;;11.10;4.50;;;4.20;43.30;;;;;;5024181;28;20053;-42
2022/03/08 02:12:08;;;;;;;7.47;4.78;;;4.20;42.80;;;;;;5023363;28;20065;-43
2022/03/08 02:14:36;;;;;;;10.85;5.43;;;4.20;42.90;;;;;;5022488;28;20058;-41
2022/03/08 02:17:04;;;;;;;7.20;4.47;;;4.20;42.80;;;;;;5021792;28;20049;-42
2022/03/08 02:19:32;;;;;;;7.43;5.20;;;4.20;42.80;;;;;;5022101;28;20060;-42
2022/03/08 02:22:01;;;;;;;10.20;5.80;;;4.20;42.80;;;;;;5022845;28;20053;-42
2022/03/08 02:24:28;;;;;;;10.88;4.93;;;4.20;42.90;;;;;;5021683;28;20052;-45
2022/03/08 02:26:56;;;;;;;10.77;5.80;;;4.20;42.90;;;;;;5023678;28;20412;-42
2022/03/08 02:29:23;;;;;;;9.18;5.03;;;4.20;43.00;;;;;;5024356;28;20057;-42
2022/03/08 02:31:51;;;;;;;8.98;5.43;;;4.20;43.00;;;;;;5021998;28;20422;-42
2022/03/08 02:34:18;;;;;;;8.73;5.70;;;4.20;43.00;;;;;;5021345;28;20049;-42
2022/03/08 02:37:01;;;;;;;10.05;5.22;;;4.20;43.00;;;;;;5018926;28;20452;-43
2022/03/08 02:39:29;;;;;;;9.98;5.43;;;4.10;43.00;;;;;;5020995;28;20049;-43
2022/03/08 02:41:56;;;;;;;12.57;5.45;;;4.10;43.00;;;;;;5022774;28;20066;-43
2022/03/08 02:44:24;;;;;;;8.90;5.63;;;4.10;42.90;;;;;;5022396;28;20061;-42
2022/03/08 02:46:52;;;;;;;9.18;5.70;;;4.10;43.00;;;;;;5020764;28;20486;-41
2022/03/08 02:49:20;;;;;;;6.75;4.70;;;4.10;43.00;;;;;;5018556;28;20132;-42
2022/03/08 02:51:48;;;;;;;111.82;40.10;;;4.10;43.00;;;;;;5022362;28;20065;-43
2022/03/08 02:54:17;;;;;;;47.17;19.13;;;4.10;43.00;;;;;;5021980;28;20049;-44
2022/03/08 02:56:44;;;;;;;20.63;8.88;;;4.10;43.10;;;;;;5022528;28;20057;-42
2022/03/08 02:59:12;;;;;;;8.27;5.50;;;4.10;43.20;;;;;;5020272;28;20486;-43
2022/03/08 03:01:39;;;;;;;10.52;5.30;;;4.10;43.20;;;;;;5023508;28;20057;-42
2022/03/08 03:04:07;;;;;;;8.40;5.47;;;4.10;43.20;;;;;;5020741;28;20057;-43
2022/03/08 03:06:35;;;;;;;10.23;5.55;;;4.10;43.20;;;;;;5022987;28;20397;-42
2022/03/08 03:09:03;;;;;;;10.13;5.68;;;4.10;43.30;;;;;;5023076;28;20060;-42
2022/03/08 03:11:32;;;;;;;9.65;5.70;;;4.10;43.30;;;;;;5021570;28;20045;-42
2022/03/08 03:14:00;;;;;;;8.07;4.93;;;4.00;43.30;;;;;;5021111;28;20053;-42
2022/03/08 03:16:28;;;;;;;8.68;5.15;;;4.00;43.30;;;;;;5022051;28;20061;-42
2022/03/08 03:18:55;;;;;;;10.93;6.68;;;4.00;43.40;;;;;;5021077;28;20072;-46
2022/03/08 03:21:23;;;;;;;13.27;5.95;;;4.00;43.50;;;;;;5022171;28;20410;-43
2022/03/08 03:23:50;;;;;;;11.52;5.53;;;4.00;43.50;;;;;;5021353;28;20049;-42
2022/03/08 03:26:18;;;;;;;7.93;5.20;;;4.00;43.50;;;;;;5020610;28;20413;-42
2022/03/08 03:28:47;;;;;;;9.88;5.30;;;4.00;43.50;;;;;;5022042;28;20064;-42
2022/03/08 03:31:14;;;;;;;10.27;6.28;;;4.00;43.60;;;;;;5019939;28;20060;-43
2022/03/08 03:33:42;;;;;;;13.20;6.28;;;4.00;43.60;;;;;;5017859;28;20058;-44
2022/03/08 03:36:09;;;;;;;8.82;5.35;;;4.00;43.50;;;;;;5022939;28;20058;-42
2022/03/08 03:38:37;;;;;;;9.40;5.70;;;4.00;43.60;;;;;;5020779;28;20080;-45
2022/03/08 03:41:05;;;;;;;10.07;6.07;;;4.00;43.60;;;;;;5021484;28;20493;-42
2022/03/08 03:43:33;;;;;;;11.50;5.70;;;4.00;43.60;;;;;;5021238;28;20061;-43
2022/03/08 03:46:02;;;;;;;9.27;5.93;;;4.00;43.50;;;;;;5021662;28;20516;-43
2022/03/08 03:48:29;;;;;;;9.85;5.63;;;3.90;43.60;;;;;;5021119;28;20049;-42
2022/03/08 03:50:57;;;;;;;6.50;4.63;;;4.00;43.60;;;;;;5018940;28;20068;-42
2022/03/08 03:53:24;;;;;;;8.18;4.75;;;4.00;43.60;;;;;;5020260;28;20060;-44
2022/03/08 03:55:52;;;;;;;26.08;11.65;;;4.00;43.60;;;;;;5021109;28;20053;-42
2022/03/08 03:58:20;;;;;;;20.48;8.73;;;4.00;43.60;;;;;;5020727;28;20053;-42
2022/03/08 04:00:47;;;;;;;11.30;6.03;;;4.00;43.60;;;;;;5021581;28;20493;-42
2022/03/08 04:03:18;;;;;;;9.10;5.57;;;4.00;43.60;;;;;;5022639;28;20524;-42
2022/03/08 04:05:46;;;;;;;8.50;4.60;;;4.00;43.60;;;;;;5018912;28;20056;-42
2022/03/08 04:08:15;;;;;;;10.02;5.82;;;4.00;43.60;;;;;;5020727;28;20087;-44
2022/03/08 04:10:43;;;;;;;8.85;5.15;;;4.00;43.60;;;;;;5020638;28;20056;-42
2022/03/08 04:13:11;;;;;;;6.30;4.70;;;4.00;43.60;;;;;;5021377;28;20386;-45
2022/03/08 04:15:38;;;;;;;8.07;5.10;;;3.90;43.50;;;;;;5018285;28;20497;-42
2022/03/08 04:18:06;;;;;;;10.95;4.90;;;3.90;43.60;;;;;;5020347;28;20065;-42
2022/03/08 04:20:35;;;;;;;10.18;5.82;;;3.90;43.60;;;;;;5021584;28;20053;-42
2022/03/08 04:23:03;;;;;;;7.68;4.93;;;3.90;43.60;;;;;;5020181;28;20076;-42
2022/03/08 04:25:31;;;;;;;9.13;5.25;;;3.90;43.60;;;;;;5020184;28;20049;-43
2022/03/08 04:27:59;;;;;;;8.68;4.90;;;3.90;43.70;;;;;;5021775;28;20057;-42
2022/03/08 04:30:26;;;;;;;10.50;6.53;;;3.90;43.70;;;;;;5020742;28;20057;-43
2022/03/08 04:32:54;;;;;;;10.07;5.70;;;3.90;43.70;;;;;;5015442;28;20053;-42
2022/03/08 04:35:22;;;;;;;7.35;4.75;;;3.90;43.80;;;;;;5018665;28;20530;-42
2022/03/08 04:37:51;;;;;;;7.68;5.03;;;3.80;43.70;;;;;;5022044;28;20057;-42
2022/03/08 04:40:18;;;;;;;10.02;5.97;;;3.80;43.70;;;;;;5019716;28;20394;-44
2022/03/08 04:42:46;;;;;;;7.80;5.13;;;3.80;43.80;;;;;;5017790;28;20053;-43
2022/03/08 04:45:14;;;;;;;59.70;23.65;;;3.80;43.80;;;;;;5021860;28;20052;-42
2022/03/08 04:47:42;;;;;;;24.67;10.70;;;3.80;43.80;;;;;;5024400;28;20062;-45
2022/03/08 04:50:14;;;;;;;13.05;7.15;;;3.80;43.80;;;;;;5023391;28;20053;-43
2022/03/08 04:52:42;;;;;;;8.13;5.28;;;3.80;43.90;;;;;;5025418;28;20452;-42
2022/03/08 04:55:11;;;;;;;10.65;6.00;;;3.80;43.80;;;;;;5022990;28;20390;-42
2022/03/08 04:57:39;;;;;;;8.55;5.30;;;3.80;43.80;;;;;;5026158;28;20058;-42
2022/03/08 05:00:12;;;;;;;7.18;4.88;;;3.80;43.90;;;;;;5022964;28;20068;-42
2022/03/08 05:02:40;;;;;;;7.93;5.20;;;3.70;43.90;;;;;;5023540;28;20742;-42
2022/03/08 05:05:09;;;;;;;13.18;5.85;;;3.70;43.80;;;;;;5024136;28;20429;-42
2022/03/08 05:07:37;;;;;;;11.18;5.80;;;3.70;43.90;;;;;;5026298;28;20425;-42
2022/03/08 05:10:09;;;;;;;13.43;6.50;;;3.70;44.00;;;;;;5022606;28;20050;-43
2022/03/08 05:12:40;;;;;;;13.23;6.32;;;3.70;44.00;;;;;;5025398;28;20076;-42
2022/03/08 05:15:09;;;;;;;10.27;5.80;;;3.70;44.00;;;;;;5007341;28;20056;-42
2022/03/08 05:17:37;;;;;;;11.65;5.88;;;3.70;44.00;;;;;;5019868;28;20057;-42
2022/03/08 05:20:06;;;;;;;7.75;5.20;;;3.70;44.00;;;;;;5023984;28;20057;-43
2022/03/08 05:22:36;;;;;;;11.00;6.13;;;3.70;44.00;;;;;;5025859;28;20669;-42
2022/03/08 05:25:07;;;;;;;12.10;5.43;;;3.60;43.90;;;;;;5024609;28;20049;-42
2022/03/08 05:27:37;;;;;;;8.25;5.13;;;3.70;44.00;;;;;;5007335;28;20053;-42
2022/03/08 05:30:10;;;;;;;9.80;5.75;;;3.70;44.00;;;;;;5025194;28;20041;-43
2022/03/08 05:32:40;;;;;;;10.43;6.28;;;3.70;43.90;;;;;;5025096;28;20397;-43
2022/03/08 05:35:11;;;;;;;11.73;6.70;;;3.60;44.00;;;;;;5018787;28;20056;-42
2022/03/08 05:37:39;;;;;;;15.05;5.97;;;3.70;44.00;;;;;;4986804;28;20069;-43
2022/03/08 05:40:08;;;;;;;9.23;5.85;;;3.60;44.00;;;;;;5017659;28;20053;-42
2022/03/08 05:42:38;;;;;;;8.48;5.82;;;3.60;43.90;;;;;;5023594;28;20057;-42
2022/03/08 05:45:08;;;;;;;13.18;6.40;;;3.60;43.90;;;;;;5020454;28;20072;-43
2022/03/08 05:47:38;;;;;;;12.35;6.18;;;3.60;43.90;;;;;;5022365;28;20398;-42
2022/03/08 05:50:09;;;;;;;10.15;5.68;;;3.60;44.00;;;;;;5024533;28;20505;-42
2022/03/08 05:52:36;;;;;;;9.60;5.30;;;3.60;44.00;;;;;;5024945;28;20426;-42
2022/03/08 05:55:04;;;;;;;9.90;6.10;;;3.60;44.00;;;;;;5023702;28;20057;-42
2022/03/08 05:57:32;;;;;;;16.35;5.43;;;3.60;44.00;;;;;;5018899;28;20049;-42
2022/03/08 05:59:59;;;;;;;13.82;6.50;;;3.60;44.00;;;;;;5024427;28;20108;-42
2022/03/08 06:02:28;;;;;;;13.52;6.22;;;3.60;44.00;;;;;;5022460;28;20057;-42
2022/03/08 06:04:56;;;;;;;9.65;5.70;;;3.60;44.00;;;;;;5020463;28;20064;-42
2022/03/08 06:07:24;;;;;;;115.38;36.80;;;3.60;44.00;;;;;;5022906;28;20054;-43
2022/03/08 06:09:51;;;;;;;26.58;11.35;;;3.60;44.00;;;;;;5022995;28;20049;-42
2022/03/08 06:12:19;;;;;;;15.80;8.02;;;3.60;44.00;;;;;;5022971;28;20525;-43
2022/03/08 06:14:46;;;;;;;10.10;5.70;;;3.60;44.00;;;;;;5024385;28;20053;-42
2022/03/08 06:17:14;;;;;;;10.82;6.28;;;3.60;44.00;;;;;;5020580;28;20049;-42
2022/03/08 06:19:42;;;;;;;10.52;5.53;;;3.60;44.00;;;;;;5016007;28;20612;-42
2022/03/08 06:22:10;;;;;;;9.52;5.82;;;3.60;44.00;;;;;;5016642;28;20072;-43
2022/03/08 06:24:37;;;;;;;8.82;5.25;;;3.60;44.00;;;;;;5020179;28;20441;-42
2022/03/08 06:27:05;;;;;;;9.05;5.38;;;3.70;44.00;;;;;;5017575;28;20049;-43
2022/03/08 06:29:33;;;;;;;10.52;5.90;;;3.70;44.00;;;;;;5016251;28;20057;-42
2022/03/08 06:32:00;;;;;;;10.50;5.90;;;3.70;44.00;;;;;;5022112;28;20512;-42
2022/03/08 06:34:28;;;;;;;8.85;5.45;;;3.70;44.00;;;;;;5017068;28;20524;-42
2022/03/08 06:36:57;;;;;;;12.18;6.10;;;3.70;44.00;;;;;;5007687;28;20398;-42
2022/03/08 06:39:24;;;;;;;11.45;6.70;;;3.70;43.90;;;;;;5024030;28;20057;-42
2022/03/08 06:41:52;;;;;;;9.68;5.70;;;3.80;43.90;;;;;;5021291;28;20057;-43
2022/03/08 06:44:19;;;;;;;8.18;5.40;;;3.80;43.90;;;;;;5018285;28;20068;-42
2022/03/08 06:46:47;;;;;;;9.98;5.90;;;3.80;43.90;;;;;;5021417;28;21518;-46
2022/03/08 06:49:15;;;;;;;9.70;5.88;;;3.80;43.90;;;;;;5019022;28;20083;-42
2022/03/08 06:51:43;;;;;;;9.73;5.90;;;3.90;43.90;;;;;;5013337;28;20072;-43
2022/03/08 06:54:12;;;;;;;13.18;6.00;;;3.80;43.90;;;;;;5009626;28;20062;-43
2022/03/08 06:56:40;;;;;;;9.93;5.88;;;3.90;43.90;;;;;;5015325;28;20045;-42
2022/03/08 06:59:07;;;;;;;9.32;5.60;;;3.90;43.90;;;;;;5008061;28;20054;-42
2022/03/08 07:01:35;;;;;;;8.40;4.82;;;4.00;44.40;;;;;;5017094;28;20064;-42
2022/03/08 07:04:03;;;;;;;10.38;5.35;;;4.00;44.00;;;;;;5009182;28;20068;-42
2022/03/08 07:06:30;;;;;;;9.05;5.35;;;4.10;44.00;;;;;;5015871;28;20660;-45
2022/03/08 07:08:58;;;;;;;10.57;5.50;;;4.10;43.90;;;;;;5010402;28;20053;-42
2022/03/08 07:11:27;;;;;;;10.13;6.07;;;4.20;43.90;;;;;;5011009;28;20411;-43
2022/03/08 07:13:55;;;;;;;12.32;5.90;;;4.20;43.90;;;;;;5013181;28;20076;-43
2022/03/08 07:16:22;;;;;;;7.85;5.35;;;4.30;43.90;;;;;;5023638;28;20056;-42
2022/03/08 07:18:50;;;;;;;11.52;5.65;;;4.30;43.70;;;;;;5010323;28;20061;-45
2022/03/08 07:21:17;;;;;;;10.52;6.30;;;4.30;43.70;;;;;;5007597;28;20774;-42
2022/03/08 07:23:45;;;;;;;7.97;5.43;;;4.40;43.70;;;;;;5016051;28;20057;-42
2022/03/08 07:26:13;;;;;;;10.75;5.97;;;4.40;43.60;;;;;;5022029;28;20068;-42
2022/03/08 07:28:42;;;;;;;17.23;8.15;;;4.50;43.60;;;;;;5019711;28;20057;-45
2022/03/08 07:31:12;;;;;;;16.90;7.20;;;4.50;43.50;;;;;;5021872;28;20481;-42
2022/03/08 07:33:40;;;;;;;20.48;9.45;;;4.60;43.60;;;;;;5019569;28;20061;-42
2022/03/08 07:36:08;;;;;;;27.08;10.43;;;4.60;43.70;;;;;;5020028;28;20064;-43
2022/03/08 07:38:36;;;;;;;33.08;13.85;;;4.60;43.60;;;;;;5020905;28;20053;-42
2022/03/08 07:41:04;;;;;;;14.40;8.10;;;4.70;43.50;;;;;;5021126;28;20060;-41
2022/03/08 07:43:31;;;;;;;14.82;8.07;;;4.80;43.50;;;;;;5020831;28;20053;-45
2022/03/08 07:46:00;;;;;;;14.00;6.50;;;4.80;43.50;;;;;;5016449;28;20069;-43
2022/03/08 07:48:28;;;;;;;10.23;6.65;;;4.90;43.50;;;;;;5017337;28;20171;-42
2022/03/08 07:50:55;;;;;;;11.57;6.22;;;4.90;43.30;;;;;;5017887;28;20061;-42
2022/03/08 07:53:23;;;;;;;9.25;5.88;;;4.90;43.30;;;;;;5020905;28;20920;-43
2022/03/08 07:55:50;;;;;;;13.32;6.80;;;5.00;43.30;;;;;;5012148;28;20084;-42
2022/03/08 07:58:19;;;;;;;10.23;5.72;;;5.10;43.40;;;;;;5009095;28;20072;-43
2022/03/08 08:00:47;;;;;;;15.35;7.35;;;5.10;43.20;;;;;;5012629;28;20061;-47
2022/03/08 08:03:16;;;;;;;25.00;13.25;;;5.10;43.20;;;;;;5011000;28;20136;-42
2022/03/08 08:05:44;;;;;;;13.70;7.60;;;5.20;43.40;;;;;;5005688;28;20434;-42
2022/03/08 08:08:12;;;;;;;14.05;7.15;;;5.20;43.40;;;;;;5016153;28;20054;-44
2022/03/08 08:10:40;;;;;;;11.60;6.50;;;5.30;43.70;;;;;;5019961;28;20053;-48
2022/03/08 08:13:07;;;;;;;13.27;7.30;;;5.40;43.60;;;;;;5022651;28;20065;-42
2022/03/08 08:15:36;;;;;;;11.55;6.28;;;5.40;43.60;;;;;;5023279;28;20049;-42
2022/03/08 08:18:04;;;;;;;10.93;6.43;;;5.50;43.60;;;;;;5015903;28;20057;-44
2022/03/08 08:20:34;;;;;;;12.45;6.75;;;5.50;43.50;;;;;;5018487;28;20053;-43
2022/03/08 08:23:02;;;;;;;10.63;6.35;;;5.60;43.60;;;;;;5011678;28;20111;-43
2022/03/08 08:25:30;;;;;;;12.85;6.45;;;5.60;43.60;;;;;;5014502;28;20516;-42
2022/03/08 08:27:58;;;;;;;12.43;7.15;;;5.70;43.30;;;;;;5017299;28;20080;-42
2022/03/08 08:30:26;;;;;;;17.42;7.15;;;5.80;43.30;;;;;;5022582;28;20053;-42
2022/03/08 08:32:55;;;;;;;10.23;6.72;;;5.80;43.10;;;;;;5021241;28;20520;-45
2022/03/08 08:35:23;;;;;;;15.15;6.90;;;5.90;43.00;;;;;;5018932;28;20049;-43
2022/03/08 08:37:53;;;;;;;12.27;6.47;;;6.00;42.90;;;;;;5019685;28;20528;-42
2022/03/08 08:40:20;;;;;;;13.18;6.30;;;6.00;42.90;;;;;;5021176;28;20053;-46
2022/03/08 08:42:48;;;;;;;12.75;5.90;;;6.10;42.90;;;;;;5019662;28;20053;-42
2022/03/08 08:45:15;;;;;;;11.65;6.72;;;6.10;43.00;;;;;;5019498;28;20516;-43
2022/03/08 08:47:43;;;;;;;11.90;6.30;;;6.20;43.10;;;;;;5021927;28;20524;-43
2022/03/08 08:50:11;;;;;;;10.77;6.60;;;6.30;43.00;;;;;;5020213;28;20061;-42
2022/03/08 08:52:38;;;;;;;20.38;6.68;;;6.40;42.80;;;;;;5020743;28;20116;-42
2022/03/08 08:55:08;;;;;;;11.15;6.05;;;6.40;42.40;;;;;;5020409;28;20057;-42
2022/03/08 08:57:36;;;;;;;10.82;6.35;;;6.50;42.40;;;;;;5021704;28;20053;-42
2022/03/08 09:00:05;;;;;;;16.60;6.40;;;6.50;42.30;;;;;;5021953;28;20065;-42
2022/03/08 09:02:32;;;;;;;13.93;5.60;;;6.60;42.10;;;;;;5023076;28;20061;-42
2022/03/08 09:05:00;;;;;;;8.88;5.93;;;6.70;42.10;;;;;;5017763;28;20444;-43
2022/03/08 09:07:27;;;;;;;7.57;5.25;;;6.70;41.50;;;;;;5020306;28;20090;-42
2022/03/08 09:09:55;;;;;;;9.35;5.53;;;6.80;41.00;;;;;;5022624;28;20053;-42
2022/03/08 09:12:23;;;;;;;11.35;5.03;;;6.90;41.00;;;;;;5021667;28;20080;-42
2022/03/08 09:14:51;;;;;;;10.48;5.15;;;6.90;40.90;;;;;;5019447;28;20053;-42
2022/03/08 09:17:19;;;;;;;12.45;5.60;;;7.00;40.70;;;;;;5022380;28;20064;-42
2022/03/08 09:19:46;;;;;;;12.35;5.05;;;7.00;40.70;;;;;;5019196;28;20057;-43
2022/03/08 09:22:14;;;;;;;10.10;5.18;;;7.10;40.60;;;;;;5020905;28;20068;-42
2022/03/08 09:24:41;;;;;;;10.43;5.47;;;7.10;40.40;;;;;;5017618;28;20049;-49
2022/03/08 09:27:09;;;;;;;7.28;4.72;;;7.30;40.50;;;;;;5020984;28;20053;-42
2022/03/08 09:29:38;;;;;;;19.13;5.00;;;7.30;40.10;;;;;;5020866;28;20049;-43
2022/03/08 09:32:06;;;;;;;9.52;5.15;;;7.30;40.70;;;;;;5024801;28;20049;-45
2022/03/08 09:34:34;;;;;;;8.30;4.55;;;7.40;40.20;;;;;;5022978;28;20045;-43
2022/03/08 09:37:01;;;;;;;9.13;4.75;;;7.50;40.10;;;;;;5023835;28;20060;-42
2022/03/08 09:39:29;;;;;;;9.20;4.60;;;7.50;39.80;;;;;;5023558;28;20798;-42
2022/03/08 09:41:57;;;;;;;8.43;4.60;;;7.60;39.70;;;;;;5025128;28;20418;-42
2022/03/08 09:44:25;;;;;;;8.63;4.53;;;7.60;39.10;;;;;;5022605;28;20060;-42
2022/03/08 09:46:54;;;;;;;8.07;4.45;;;7.70;39.30;;;;;;5025447;28;20057;-42
2022/03/08 09:49:22;;;;;;;7.10;4.22;;;7.80;39.60;;;;;;5022564;28;20049;-43
2022/03/08 09:51:52;;;;;;;7.55;4.70;;;7.80;39.70;;;;;;5014946;28;21826;-43
2022/03/08 09:54:19;;;;;;;19.00;5.03;;;7.90;38.90;;;;;;5020032;28;20054;-43
2022/03/08 09:56:47;;;;;;;6.78;4.28;;;7.90;38.40;;;;;;5018097;28;20080;-42
2022/03/08 09:59:16;;;;;;;6.95;4.53;;;8.00;38.50;;;;;;5024744;28;20046;-42
2022/03/08 10:01:44;;;;;;;10.07;4.22;;;8.00;38.50;;;;;;5025573;28;20386;-48
2022/03/08 10:04:16;;;;;;;9.85;4.35;;;8.10;38.60;;;;;;5011882;28;20536;-43
2022/03/08 10:06:46;;;;;;;9.80;4.75;;;8.10;38.80;;;;;;5016369;28;20049;-44
2022/03/08 10:09:15;;;;;;;11.65;4.57;;;8.20;39.00;;;;;;5021049;28;20050;-47
2022/03/08 10:11:44;;;;;;;8.18;4.75;;;8.30;38.80;;;;;;5023079;28;20057;-43
2022/03/08 10:14:13;;;;;;;8.52;4.78;;;8.30;38.20;;;;;;5023199;28;20521;-43
2022/03/08 10:16:48;;;;;;;8.63;4.47;;;8.40;37.70;;;;;;5019702;28;20057;-42
2022/03/08 10:19:17;;;;;;;9.02;4.38;;;8.40;37.80;;;;;;5014425;28;20053;-43
2022/03/08 10:21:47;;;;;;;6.55;4.38;;;8.50;37.70;;;;;;5011458;28;20058;-43
2022/03/08 10:24:17;;;;;;;8.85;4.55;;;8.50;38.00;;;;;;5013358;28;20077;-42
2022/03/08 10:26:48;;;;;;;7.78;4.60;;;8.60;37.50;;;;;;5023555;28;20053;-42
2022/03/08 10:29:22;;;;;;;8.15;4.97;;;8.60;37.60;;;;;;5024004;28;20512;-45
2022/03/08 10:31:50;;;;;;;8.70;4.82;;;8.70;38.00;;;;;;5024730;28;20057;-42
2022/03/08 10:34:20;;;;;;;7.30;4.38;;;8.70;37.90;;;;;;5018524;28;20064;-42
2022/03/08 10:37:09;;;;;;;7.22;4.35;;;8.80;37.70;;;;;;5007274;28;20868;-42
2022/03/08 10:39:49;;;;;;;7.70;4.85;;;8.80;37.40;;;;;;5024905;28;20050;-46
2022/03/08 10:42:20;;;;;;;8.82;4.68;;;8.80;37.10;;;;;;5022822;28;20053;-43
2022/03/08 10:44:48;;;;;;;8.88;4.65;;;8.90;37.00;;;;;;5020642;28;20072;-44
2022/03/08 10:47:17;;;;;;;9.10;4.82;;;8.90;36.60;;;;;;5020832;28;20076;-42
2022/03/08 10:49:54;;;;;;;7.95;4.78;;;9.00;36.70;;;;;;5021626;28;20413;-43
2022/03/08 10:52:30;;;;;;;7.07;4.78;;;9.00;37.00;;;;;;5021988;28;20064;-42
2022/03/08 10:55:10;;;;;;;7.20;5.28;;;9.00;37.30;;;;;;5020642;28;20413;-42
2022/03/08 10:57:38;;;;;;;10.35;4.88;;;9.10;37.10;;;;;;5024608;28;20057;-42
2022/03/08 11:00:11;;;;;;;9.30;5.63;;;9.10;37.20;;;;;;5023367;28;20424;-43
2022/03/08 11:02:49;;;;;;;9.07;4.97;;;9.20;37.30;;;;;;5023300;28;20413;-42
2022/03/08 11:05:19;;;;;;;13.30;5.03;;;9.20;36.80;;;;;;5019251;28;20056;-42
2022/03/08 11:07:48;;;;;;;7.18;5.00;;;9.20;37.10;;;;;;5022305;28;20053;-42
2022/03/08 11:10:16;;;;;;;12.70;4.70;;;9.30;37.00;;;;;;5023387;28;20485;-42
2022/03/08 11:12:44;;;;;;;7.22;4.68;;;9.30;37.20;;;;;;5024039;28;20060;-43
2022/03/08 11:15:14;;;;;;;11.60;5.22;;;9.30;37.20;;;;;;5021296;28;20076;-46
2022/03/08 11:17:45;;;;;;;8.00;5.22;;;9.30;37.00;;;;;;5023027;28;20068;-43
2022/03/08 11:20:16;;;;;;;10.63;4.97;;;9.40;36.60;;;;;;5017552;28;20045;-43
2022/03/08 11:22:46;;;;;;;9.90;5.00;;;9.40;36.30;;;;;;5021430;28;20053;-43
2022/03/08 11:25:16;;;;;;;7.40;5.07;;;9.50;36.50;;;;;;5022668;28;20057;-42
2022/03/08 11:27:46;;;;;;;9.18;4.70;;;9.50;36.80;;;;;;5023164;28;20064;-43
2022/03/08 11:30:18;;;;;;;11.15;4.82;;;9.50;37.00;;;;;;5022873;28;20053;-43
2022/03/08 11:32:55;;;;;;;9.48;5.00;;;9.60;36.90;;;;;;5019726;28;20053;-42
2022/03/08 11:35:29;;;;;;;7.95;4.85;;;9.60;36.90;;;;;;5018134;28;20386;-46
2022/03/08 11:37:59;;;;;;;7.65;4.80;;;9.70;36.50;;;;;;5023859;28;20410;-43
2022/03/08 11:40:26;;;;;;;7.72;4.47;;;9.70;36.10;;;;;;5022138;28;20046;-42
2022/03/08 11:43:01;;;;;;;8.65;4.57;;;9.70;36.30;;;;;;5021925;28;20080;-43
2022/03/08 11:45:30;;;;;;;6.88;4.40;;;9.80;36.40;;;;;;5018087;28;20057;-43
2022/03/08 11:48:00;;;;;;;7.50;4.88;;;9.80;36.10;;;;;;5023290;28;20049;-43
2022/03/08 11:50:31;;;;;;;7.60;4.78;;;9.80;35.80;;;;;;5017593;28;20045;-43
2022/03/08 11:53:09;;;;;;;7.05;4.78;;;9.90;35.60;;;;;;5012279;28;20672;-43
2022/03/08 11:55:39;;;;;;;7.03;4.28;;;9.90;35.60;;;;;;5014523;28;20060;-43
2022/03/08 11:58:08;;;;;;;8.70;4.30;;;10.00;35.60;;;;;;5015343;28;20057;-42
2022/03/08 12:00:42;;;;;;;9.63;5.15;;;10.00;35.70;;;;;;5008247;28;20499;-43
2022/03/08 12:03:13;;;;;;;8.38;4.75;;;10.10;35.80;;;;;;5016124;28;20426;-44
2022/03/08 12:05:56;;;;;;;8.98;4.57;;;10.10;35.00;;;;;;5021188;28;20065;-42
2022/03/08 12:09:01;;;;;;;8.45;4.68;;;10.10;33.90;;;;;;5018705;28;20417;-42
2022/03/08 12:11:38;;;;;;;8.60;5.15;;;10.10;34.00;;;;;;5014213;28;20053;-43
2022/03/08 12:14:14;;;;;;;5.70;4.28;;;10.20;34.30;;;;;;5013664;28;20053;-42
2022/03/08 12:16:44;;;;;;;8.50;4.22;;;10.20;33.50;;;;;;5019884;28;20505;-42
2022/03/08 12:19:13;;;;;;;6.22;4.55;;;10.20;33.50;;;;;;5019498;28;20719;-44
2022/03/08 12:21:44;;;;;;;9.30;4.57;;;10.30;33.30;;;;;;5021628;28;20438;-42
2022/03/08 12:24:16;;;;;;;6.35;4.22;;;10.30;33.70;;;;;;5020659;28;20060;-42
2022/03/08 12:26:57;;;;;;;8.07;4.30;;;10.30;33.50;;;;;;5022542;28;20053;-42
2022/03/08 12:29:26;;;;;;;6.05;4.20;;;10.30;33.70;;;;;;5022567;28;20056;-43
2022/03/08 12:32:23;;;;;;;8.23;4.35;;;10.40;32.80;;;;;;5022770;28;20064;-43
2022/03/08 12:34:54;;;;;;;9.05;4.07;;;10.40;32.50;;;;;;5016751;28;20058;-42
2022/03/08 12:37:23;;;;;;;9.02;4.20;;;10.40;33.40;;;;;;5016952;28;20108;-42
2022/03/08 12:39:56;;;;;;;10.60;4.45;;;10.50;33.30;;;;;;5020133;28;20049;-43
2022/03/08 12:42:26;;;;;;;6.55;4.45;;;10.50;32.60;;;;;;5017692;28;20049;-43
2022/03/08 12:44:59;;;;;;;6.20;4.10;;;10.50;32.80;;;;;;5015416;28;20079;-43
2022/03/08 12:47:29;;;;;;;7.55;4.30;;;10.50;33.10;;;;;;5019221;28;20060;-45
2022/03/08 12:50:01;;;;;;;7.93;4.63;;;10.50;33.00;;;;;;5018140;28;20045;-45
2022/03/08 12:52:30;;;;;;;8.45;4.70;;;10.60;33.20;;;;;;5020541;28;20049;-42
2022/03/08 12:55:00;;;;;;;7.80;4.47;;;10.60;33.70;;;;;;5017185;28;20068;-43
2022/03/08 12:57:29;;;;;;;6.32;4.50;;;10.60;33.80;;;;;;5018256;28;20486;-42
2022/03/08 12:59:56;;;;;;;11.60;5.20;;;10.60;33.70;;;;;;5012290;28;20421;-42